sensor_id;sensor_type;location;lat;lon;timestamp;P1;durP1;ratioP1;P2;durP2;ratioP2
65613;SDS011;52283;49.292;10.572;2023-05-03T00:02:09;10.68;;;6.93;;
65613;SDS011;52283;49.292;10.572;2023-05-03T00:04:36;13.82;;;7.75;;
65613;SDS011;52283;49.292;10.572;2023-05-03T00:07:04;14.70;;;6.93;;
65613;SDS011;52283;49.292;10.572;2023-05-03T00:09:32;16.83;;;7.60;;
65613;SDS011;52283;49.292;10.572;2023-05-03T00:11:58;13.82;;;7.07;;
65613;SDS011;52283;49.292;10.572;2023-05-03T00:14:25;12.73;;;6.65;;
65613;SDS011;52283;49.292;10.572;2023-05-03T00:16:52;10.60;;;6.75;;
65613;SDS011;52283;49.292;10.572;2023-05-03T00:19:18;11.43;;;6.38;;
65613;SDS011;52283;49.292;10.572;2023-05-03T00:21:45;14.80;;;7.65;;
65613;SDS011;52283;49.292;10.572;2023-05-03T00:24:13;15.35;;;7.22;;
65613;SDS011;52283;49.292;10.572;2023-05-03T00:26:39;18.38;;;6.85;;
65613;SDS011;52283;49.292;10.572;2023-05-03T00:29:06;14.35;;;7.50;;
65613;SDS011;52283;49.292;10.572;2023-05-03T00:31:32;13.40;;;6.20;;
65613;SDS011;52283;49.292;10.572;2023-05-03T00:33:59;13.57;;;6.82;;
65613;SDS011;52283;49.292;10.572;2023-05-03T00:36:25;15.63;;;7.55;;
65613;SDS011;52283;49.292;10.572;2023-05-03T00:38:52;17.95;;;7.47;;
65613;SDS011;52283;49.292;10.572;2023-05-03T00:41:20;17.90;;;7.45;;
65613;SDS011;52283;49.292;10.572;2023-05-03T00:43:48;13.88;;;7.88;;
65613;SDS011;52283;49.292;10.572;2023-05-03T00:46:14;20.15;;;8.00;;
65613;SDS011;52283;49.292;10.572;2023-05-03T00:48:41;14.68;;;7.03;;
65613;SDS011;52283;49.292;10.572;2023-05-03T00:51:07;16.95;;;8.98;;
65613;SDS011;52283;49.292;10.572;2023-05-03T00:53:37;14.32;;;7.28;;
65613;SDS011;52283;49.292;10.572;2023-05-03T00:56:04;14.00;;;7.03;;
65613;SDS011;52283;49.292;10.572;2023-05-03T00:58:32;21.80;;;7.10;;
65613;SDS011;52283;49.292;10.572;2023-05-03T01:01:00;13.90;;;8.02;;
65613;SDS011;52283;49.292;10.572;2023-05-03T01:03:28;17.23;;;9.50;;
65613;SDS011;52283;49.292;10.572;2023-05-03T01:05:55;16.92;;;7.63;;
65613;SDS011;52283;49.292;10.572;2023-05-03T01:08:28;14.65;;;8.38;;
65613;SDS011;52283;49.292;10.572;2023-05-03T01:11:01;17.30;;;8.40;;
65613;SDS011;52283;49.292;10.572;2023-05-03T01:13:39;14.88;;;7.30;;
65613;SDS011;52283;49.292;10.572;2023-05-03T01:16:11;17.50;;;7.80;;
65613;SDS011;52283;49.292;10.572;2023-05-03T01:18:44;15.57;;;7.15;;
65613;SDS011;52283;49.292;10.572;2023-05-03T01:21:14;21.80;;;8.20;;
65613;SDS011;52283;49.292;10.572;2023-05-03T01:23:45;19.35;;;7.78;;
65613;SDS011;52283;49.292;10.572;2023-05-03T01:26:20;13.77;;;7.55;;
65613;SDS011;52283;49.292;10.572;2023-05-03T01:28:48;15.27;;;7.45;;
65613;SDS011;52283;49.292;10.572;2023-05-03T01:31:16;13.30;;;8.02;;
65613;SDS011;52283;49.292;10.572;2023-05-03T01:33:48;17.25;;;7.45;;
65613;SDS011;52283;49.292;10.572;2023-05-03T01:36:22;15.27;;;7.72;;
65613;SDS011;52283;49.292;10.572;2023-05-03T01:38:53;15.38;;;8.07;;
65613;SDS011;52283;49.292;10.572;2023-05-03T01:41:21;14.15;;;7.82;;
65613;SDS011;52283;49.292;10.572;2023-05-03T01:43:51;17.08;;;7.88;;
65613;SDS011;52283;49.292;10.572;2023-05-03T01:46:20;20.60;;;8.57;;
65613;SDS011;52283;49.292;10.572;2023-05-03T01:48:47;17.08;;;7.63;;
65613;SDS011;52283;49.292;10.572;2023-05-03T01:51:13;18.00;;;8.10;;
65613;SDS011;52283;49.292;10.572;2023-05-03T01:53:39;16.40;;;8.18;;
65613;SDS011;52283;49.292;10.572;2023-05-03T01:56:06;17.45;;;8.10;;
65613;SDS011;52283;49.292;10.572;2023-05-03T01:58:34;14.55;;;7.85;;
65613;SDS011;52283;49.292;10.572;2023-05-03T02:01:02;12.98;;;7.10;;
65613;SDS011;52283;49.292;10.572;2023-05-03T02:03:29;17.70;;;7.88;;
65613;SDS011;52283;49.292;10.572;2023-05-03T02:05:56;16.92;;;8.27;;
65613;SDS011;52283;49.292;10.572;2023-05-03T02:08:22;16.63;;;7.50;;
65613;SDS011;52283;49.292;10.572;2023-05-03T02:10:48;17.63;;;8.07;;
65613;SDS011;52283;49.292;10.572;2023-05-03T02:13:15;16.73;;;7.55;;
65613;SDS011;52283;49.292;10.572;2023-05-03T02:15:43;19.30;;;7.75;;
65613;SDS011;52283;49.292;10.572;2023-05-03T02:18:09;14.05;;;6.70;;
65613;SDS011;52283;49.292;10.572;2023-05-03T02:20:36;19.58;;;8.88;;
65613;SDS011;52283;49.292;10.572;2023-05-03T02:23:02;17.48;;;8.07;;
65613;SDS011;52283;49.292;10.572;2023-05-03T02:25:29;20.67;;;8.48;;
65613;SDS011;52283;49.292;10.572;2023-05-03T02:27:55;17.70;;;7.60;;
65613;SDS011;52283;49.292;10.572;2023-05-03T02:30:22;15.98;;;6.80;;
65613;SDS011;52283;49.292;10.572;2023-05-03T02:32:50;16.98;;;7.80;;
65613;SDS011;52283;49.292;10.572;2023-05-03T02:35:16;16.23;;;8.60;;
65613;SDS011;52283;49.292;10.572;2023-05-03T02:37:43;14.20;;;7.60;;
65613;SDS011;52283;49.292;10.572;2023-05-03T02:40:09;15.27;;;8.05;;
65613;SDS011;52283;49.292;10.572;2023-05-03T02:42:36;17.52;;;8.15;;
65613;SDS011;52283;49.292;10.572;2023-05-03T02:45:03;16.95;;;8.00;;
65613;SDS011;52283;49.292;10.572;2023-05-03T02:47:30;19.20;;;7.70;;
65613;SDS011;52283;49.292;10.572;2023-05-03T02:49:58;16.67;;;8.63;;
65613;SDS011;52283;49.292;10.572;2023-05-03T02:52:24;13.20;;;7.35;;
65613;SDS011;52283;49.292;10.572;2023-05-03T02:54:51;21.95;;;9.15;;
65613;SDS011;52283;49.292;10.572;2023-05-03T02:57:17;16.98;;;8.90;;
65613;SDS011;52283;49.292;10.572;2023-05-03T02:59:44;17.02;;;7.32;;
65613;SDS011;52283;49.292;10.572;2023-05-03T03:02:10;18.67;;;8.00;;
65613;SDS011;52283;49.292;10.572;2023-05-03T03:04:37;18.63;;;8.15;;
65613;SDS011;52283;49.292;10.572;2023-05-03T03:07:05;20.33;;;7.72;;
65613;SDS011;52283;49.292;10.572;2023-05-03T03:09:31;20.73;;;8.60;;
65613;SDS011;52283;49.292;10.572;2023-05-03T03:11:59;16.58;;;7.32;;
65613;SDS011;52283;49.292;10.572;2023-05-03T03:14:27;16.40;;;8.23;;
65613;SDS011;52283;49.292;10.572;2023-05-03T03:16:53;15.75;;;8.38;;
65613;SDS011;52283;49.292;10.572;2023-05-03T03:19:20;15.85;;;8.43;;
65613;SDS011;52283;49.292;10.572;2023-05-03T03:21:46;33.08;;;14.60;;
65613;SDS011;52283;49.292;10.572;2023-05-03T03:24:14;45.42;;;19.17;;
65613;SDS011;52283;49.292;10.572;2023-05-03T03:26:41;38.40;;;16.20;;
65613;SDS011;52283;49.292;10.572;2023-05-03T03:29:07;36.85;;;14.77;;
65613;SDS011;52283;49.292;10.572;2023-05-03T03:31:34;60.20;;;24.13;;
65613;SDS011;52283;49.292;10.572;2023-05-03T03:34:01;49.80;;;18.33;;
65613;SDS011;52283;49.292;10.572;2023-05-03T03:36:27;40.40;;;16.88;;
65613;SDS011;52283;49.292;10.572;2023-05-03T03:38:55;35.65;;;14.98;;
65613;SDS011;52283;49.292;10.572;2023-05-03T03:41:23;30.52;;;13.55;;
65613;SDS011;52283;49.292;10.572;2023-05-03T03:43:49;33.40;;;14.93;;
65613;SDS011;52283;49.292;10.572;2023-05-03T03:46:16;27.75;;;12.10;;
65613;SDS011;52283;49.292;10.572;2023-05-03T03:48:42;25.98;;;11.35;;
65613;SDS011;52283;49.292;10.572;2023-05-03T03:51:09;23.42;;;10.13;;
65613;SDS011;52283;49.292;10.572;2023-05-03T03:53:35;22.00;;;11.32;;
65613;SDS011;52283;49.292;10.572;2023-05-03T03:56:01;22.83;;;9.82;;
65613;SDS011;52283;49.292;10.572;2023-05-03T03:58:29;19.13;;;9.20;;
65613;SDS011;52283;49.292;10.572;2023-05-03T04:00:56;23.05;;;9.45;;
65613;SDS011;52283;49.292;10.572;2023-05-03T04:03:24;22.90;;;10.02;;
65613;SDS011;52283;49.292;10.572;2023-05-03T04:05:51;20.55;;;9.80;;
65613;SDS011;52283;49.292;10.572;2023-05-03T04:08:17;19.30;;;10.02;;
65613;SDS011;52283;49.292;10.572;2023-05-03T04:10:43;19.75;;;8.50;;
65613;SDS011;52283;49.292;10.572;2023-05-03T04:13:10;24.98;;;10.48;;
65613;SDS011;52283;49.292;10.572;2023-05-03T04:15:38;22.17;;;9.98;;
65613;SDS011;52283;49.292;10.572;2023-05-03T04:18:04;16.48;;;9.63;;
65613;SDS011;52283;49.292;10.572;2023-05-03T04:20:31;21.48;;;9.50;;
65613;SDS011;52283;49.292;10.572;2023-05-03T04:22:58;20.35;;;8.52;;
65613;SDS011;52283;49.292;10.572;2023-05-03T04:25:24;19.95;;;8.88;;
65613;SDS011;52283;49.292;10.572;2023-05-03T04:27:51;16.83;;;9.18;;
65613;SDS011;52283;49.292;10.572;2023-05-03T04:30:18;28.33;;;9.88;;
65613;SDS011;52283;49.292;10.572;2023-05-03T04:32:46;17.08;;;9.38;;
65613;SDS011;52283;49.292;10.572;2023-05-03T04:35:12;20.38;;;8.32;;
65613;SDS011;52283;49.292;10.572;2023-05-03T04:37:39;22.13;;;9.60;;
65613;SDS011;52283;49.292;10.572;2023-05-03T04:40:06;18.70;;;8.95;;
65613;SDS011;52283;49.292;10.572;2023-05-03T04:42:36;27.42;;;9.38;;
65613;SDS011;52283;49.292;10.572;2023-05-03T04:45:02;23.85;;;9.85;;
65613;SDS011;52283;49.292;10.572;2023-05-03T04:47:30;22.52;;;8.93;;
65613;SDS011;52283;49.292;10.572;2023-05-03T04:49:58;23.77;;;9.23;;
65613;SDS011;52283;49.292;10.572;2023-05-03T04:52:26;18.52;;;9.35;;
65613;SDS011;52283;49.292;10.572;2023-05-03T04:54:53;19.45;;;9.07;;
65613;SDS011;52283;49.292;10.572;2023-05-03T04:57:19;23.67;;;10.25;;
65613;SDS011;52283;49.292;10.572;2023-05-03T04:59:46;19.63;;;9.30;;
65613;SDS011;52283;49.292;10.572;2023-05-03T05:02:12;20.58;;;9.05;;
65613;SDS011;52283;49.292;10.572;2023-05-03T05:04:39;34.22;;;9.93;;
65613;SDS011;52283;49.292;10.572;2023-05-03T05:07:07;26.15;;;10.45;;
65613;SDS011;52283;49.292;10.572;2023-05-03T05:09:33;19.65;;;9.68;;
65613;SDS011;52283;49.292;10.572;2023-05-03T05:12:00;24.35;;;10.30;;
65613;SDS011;52283;49.292;10.572;2023-05-03T05:14:28;22.33;;;10.52;;
65613;SDS011;52283;49.292;10.572;2023-05-03T05:16:55;18.73;;;9.40;;
65613;SDS011;52283;49.292;10.572;2023-05-03T05:19:21;23.65;;;9.10;;
65613;SDS011;52283;49.292;10.572;2023-05-03T05:21:48;26.27;;;10.32;;
65613;SDS011;52283;49.292;10.572;2023-05-03T05:24:17;25.27;;;9.65;;
65613;SDS011;52283;49.292;10.572;2023-05-03T05:26:44;19.42;;;10.20;;
65613;SDS011;52283;49.292;10.572;2023-05-03T05:29:10;20.02;;;9.43;;
65613;SDS011;52283;49.292;10.572;2023-05-03T05:31:37;20.23;;;10.35;;
65613;SDS011;52283;49.292;10.572;2023-05-03T05:34:04;23.10;;;8.88;;
65613;SDS011;52283;49.292;10.572;2023-05-03T05:36:30;22.13;;;8.20;;
65613;SDS011;52283;49.292;10.572;2023-05-03T05:38:57;19.08;;;8.73;;
65613;SDS011;52283;49.292;10.572;2023-05-03T05:41:25;23.63;;;9.52;;
65613;SDS011;52283;49.292;10.572;2023-05-03T05:43:51;20.77;;;9.00;;
65613;SDS011;52283;49.292;10.572;2023-05-03T05:46:18;22.50;;;10.65;;
65613;SDS011;52283;49.292;10.572;2023-05-03T05:48:45;20.25;;;8.77;;
65613;SDS011;52283;49.292;10.572;2023-05-03T05:51:11;23.05;;;8.25;;
65613;SDS011;52283;49.292;10.572;2023-05-03T05:53:38;22.65;;;9.32;;
65613;SDS011;52283;49.292;10.572;2023-05-03T05:56:04;19.38;;;8.75;;
65613;SDS011;52283;49.292;10.572;2023-05-03T05:58:34;20.70;;;9.13;;
65613;SDS011;52283;49.292;10.572;2023-05-03T06:01:02;17.75;;;8.25;;
65613;SDS011;52283;49.292;10.572;2023-05-03T06:03:28;19.50;;;8.90;;
65613;SDS011;52283;49.292;10.572;2023-05-03T06:05:56;17.15;;;7.60;;
65613;SDS011;52283;49.292;10.572;2023-05-03T06:08:22;18.00;;;8.63;;
65613;SDS011;52283;49.292;10.572;2023-05-03T06:10:49;23.38;;;9.25;;
65613;SDS011;52283;49.292;10.572;2023-05-03T06:13:16;16.38;;;8.23;;
65613;SDS011;52283;49.292;10.572;2023-05-03T06:15:44;20.75;;;8.77;;
65613;SDS011;52283;49.292;10.572;2023-05-03T06:18:11;16.10;;;8.20;;
65613;SDS011;52283;49.292;10.572;2023-05-03T06:20:37;20.92;;;9.55;;
65613;SDS011;52283;49.292;10.572;2023-05-03T06:23:04;17.75;;;8.27;;
65613;SDS011;52283;49.292;10.572;2023-05-03T06:25:30;22.08;;;8.75;;
65613;SDS011;52283;49.292;10.572;2023-05-03T06:27:56;13.30;;;7.88;;
65613;SDS011;52283;49.292;10.572;2023-05-03T06:30:23;15.02;;;8.02;;
65613;SDS011;52283;49.292;10.572;2023-05-03T06:32:53;18.63;;;7.75;;
65613;SDS011;52283;49.292;10.572;2023-05-03T06:35:20;20.45;;;8.30;;
65613;SDS011;52283;49.292;10.572;2023-05-03T06:37:46;19.55;;;7.38;;
65613;SDS011;52283;49.292;10.572;2023-05-03T06:40:13;16.95;;;7.78;;
65613;SDS011;52283;49.292;10.572;2023-05-03T06:42:40;16.55;;;8.55;;
65613;SDS011;52283;49.292;10.572;2023-05-03T06:45:07;13.10;;;7.03;;
65613;SDS011;52283;49.292;10.572;2023-05-03T06:47:34;24.85;;;8.15;;
65613;SDS011;52283;49.292;10.572;2023-05-03T06:50:02;15.32;;;7.93;;
65613;SDS011;52283;49.292;10.572;2023-05-03T06:52:29;13.75;;;8.07;;
65613;SDS011;52283;49.292;10.572;2023-05-03T06:54:56;18.05;;;8.25;;
65613;SDS011;52283;49.292;10.572;2023-05-03T06:57:22;13.50;;;8.32;;
65613;SDS011;52283;49.292;10.572;2023-05-03T06:59:49;12.50;;;7.22;;
65613;SDS011;52283;49.292;10.572;2023-05-03T07:02:16;15.02;;;7.85;;
65613;SDS011;52283;49.292;10.572;2023-05-03T07:04:42;17.17;;;8.15;;
65613;SDS011;52283;49.292;10.572;2023-05-03T07:07:10;15.68;;;7.68;;
65613;SDS011;52283;49.292;10.572;2023-05-03T07:09:37;12.52;;;8.45;;
65613;SDS011;52283;49.292;10.572;2023-05-03T07:12:03;10.73;;;7.80;;
65613;SDS011;52283;49.292;10.572;2023-05-03T07:14:30;15.38;;;7.78;;
65613;SDS011;52283;49.292;10.572;2023-05-03T07:16:57;13.15;;;8.20;;
65613;SDS011;52283;49.292;10.572;2023-05-03T07:19:23;15.90;;;8.15;;
65613;SDS011;52283;49.292;10.572;2023-05-03T07:21:49;13.82;;;7.82;;
65613;SDS011;52283;49.292;10.572;2023-05-03T07:24:17;16.35;;;7.60;;
65613;SDS011;52283;49.292;10.572;2023-05-03T07:26:44;14.65;;;8.02;;
65613;SDS011;52283;49.292;10.572;2023-05-03T07:29:11;13.55;;;7.40;;
65613;SDS011;52283;49.292;10.572;2023-05-03T07:31:37;22.52;;;7.82;;
65613;SDS011;52283;49.292;10.572;2023-05-03T07:34:04;12.48;;;8.05;;
65613;SDS011;52283;49.292;10.572;2023-05-03T07:36:31;14.38;;;8.02;;
65613;SDS011;52283;49.292;10.572;2023-05-03T07:38:57;14.55;;;8.68;;
65613;SDS011;52283;49.292;10.572;2023-05-03T07:41:25;13.73;;;8.52;;
65613;SDS011;52283;49.292;10.572;2023-05-03T07:43:52;18.10;;;8.10;;
65613;SDS011;52283;49.292;10.572;2023-05-03T07:46:19;12.07;;;7.78;;
65613;SDS011;52283;49.292;10.572;2023-05-03T07:48:45;12.50;;;7.63;;
65613;SDS011;52283;49.292;10.572;2023-05-03T07:51:11;13.05;;;8.32;;
65613;SDS011;52283;49.292;10.572;2023-05-03T07:53:38;16.90;;;7.80;;
65613;SDS011;52283;49.292;10.572;2023-05-03T07:56:05;18.10;;;8.65;;
65613;SDS011;52283;49.292;10.572;2023-05-03T07:58:33;18.13;;;7.80;;
65613;SDS011;52283;49.292;10.572;2023-05-03T08:01:00;11.48;;;6.90;;
65613;SDS011;52283;49.292;10.572;2023-05-03T08:03:27;9.68;;;7.53;;
65613;SDS011;52283;49.292;10.572;2023-05-03T08:05:54;14.35;;;8.05;;
65613;SDS011;52283;49.292;10.572;2023-05-03T08:08:20;13.32;;;7.85;;
65613;SDS011;52283;49.292;10.572;2023-05-03T08:10:47;12.82;;;8.73;;
65613;SDS011;52283;49.292;10.572;2023-05-03T08:13:14;18.58;;;8.30;;
65613;SDS011;52283;49.292;10.572;2023-05-03T08:15:42;15.50;;;7.90;;
65613;SDS011;52283;49.292;10.572;2023-05-03T08:18:09;15.48;;;8.20;;
65613;SDS011;52283;49.292;10.572;2023-05-03T08:20:36;16.90;;;8.13;;
65613;SDS011;52283;49.292;10.572;2023-05-03T08:23:03;15.57;;;7.80;;
65613;SDS011;52283;49.292;10.572;2023-05-03T08:25:30;10.82;;;7.50;;
65613;SDS011;52283;49.292;10.572;2023-05-03T08:27:56;13.07;;;8.13;;
65613;SDS011;52283;49.292;10.572;2023-05-03T08:30:23;11.52;;;7.53;;
65613;SDS011;52283;49.292;10.572;2023-05-03T08:32:51;14.82;;;8.00;;
65613;SDS011;52283;49.292;10.572;2023-05-03T08:35:18;14.85;;;7.32;;
65613;SDS011;52283;49.292;10.572;2023-05-03T08:37:45;12.50;;;8.52;;
65613;SDS011;52283;49.292;10.572;2023-05-03T08:40:11;13.30;;;7.47;;
65613;SDS011;52283;49.292;10.572;2023-05-03T08:42:40;10.00;;;6.80;;
65613;SDS011;52283;49.292;10.572;2023-05-03T08:45:09;12.52;;;7.32;;
65613;SDS011;52283;49.292;10.572;2023-05-03T08:47:37;17.10;;;7.03;;
65613;SDS011;52283;49.292;10.572;2023-05-03T08:50:07;11.27;;;7.10;;
65613;SDS011;52283;49.292;10.572;2023-05-03T08:52:34;7.00;;;5.97;;
65613;SDS011;52283;49.292;10.572;2023-05-03T08:55:01;7.25;;;4.85;;
65613;SDS011;52283;49.292;10.572;2023-05-03T08:57:29;8.90;;;5.22;;
65613;SDS011;52283;49.292;10.572;2023-05-03T08:59:56;9.48;;;6.22;;
65613;SDS011;52283;49.292;10.572;2023-05-03T09:02:25;11.85;;;6.90;;
65613;SDS011;52283;49.292;10.572;2023-05-03T09:04:52;10.27;;;6.05;;
65613;SDS011;52283;49.292;10.572;2023-05-03T09:07:22;8.75;;;5.55;;
65613;SDS011;52283;49.292;10.572;2023-05-03T09:09:48;10.32;;;6.03;;
65613;SDS011;52283;49.292;10.572;2023-05-03T09:12:31;8.57;;;6.07;;
65613;SDS011;52283;49.292;10.572;2023-05-03T09:14:59;8.88;;;6.25;;
65613;SDS011;52283;49.292;10.572;2023-05-03T09:17:26;9.43;;;5.50;;
65613;SDS011;52283;49.292;10.572;2023-05-03T09:19:53;11.38;;;6.50;;
65613;SDS011;52283;49.292;10.572;2023-05-03T09:22:22;10.63;;;5.88;;
65613;SDS011;52283;49.292;10.572;2023-05-03T09:24:52;9.93;;;5.32;;
65613;SDS011;52283;49.292;10.572;2023-05-03T09:27:19;7.43;;;5.68;;
65613;SDS011;52283;49.292;10.572;2023-05-03T09:29:46;7.70;;;5.05;;
65613;SDS011;52283;49.292;10.572;2023-05-03T09:32:13;12.93;;;6.43;;
65613;SDS011;52283;49.292;10.572;2023-05-03T09:34:40;8.23;;;5.38;;
65613;SDS011;52283;49.292;10.572;2023-05-03T09:37:08;10.80;;;5.72;;
65613;SDS011;52283;49.292;10.572;2023-05-03T09:39:36;8.93;;;5.70;;
65613;SDS011;52283;49.292;10.572;2023-05-03T09:42:09;7.93;;;5.80;;
65613;SDS011;52283;49.292;10.572;2023-05-03T09:44:40;12.18;;;5.75;;
65613;SDS011;52283;49.292;10.572;2023-05-03T09:47:15;7.60;;;4.85;;
65613;SDS011;52283;49.292;10.572;2023-05-03T09:49:42;12.30;;;5.35;;
65613;SDS011;52283;49.292;10.572;2023-05-03T09:52:09;7.07;;;5.25;;
65613;SDS011;52283;49.292;10.572;2023-05-03T09:54:37;9.77;;;5.70;;
65613;SDS011;52283;49.292;10.572;2023-05-03T09:57:05;7.97;;;5.97;;
65613;SDS011;52283;49.292;10.572;2023-05-03T09:59:33;7.78;;;4.95;;
65613;SDS011;52283;49.292;10.572;2023-05-03T10:02:01;9.90;;;5.30;;
65613;SDS011;52283;49.292;10.572;2023-05-03T10:04:32;9.07;;;5.07;;
65613;SDS011;52283;49.292;10.572;2023-05-03T10:07:07;7.50;;;5.50;;
65613;SDS011;52283;49.292;10.572;2023-05-03T10:09:38;7.88;;;5.75;;
65613;SDS011;52283;49.292;10.572;2023-05-03T10:12:08;8.27;;;5.32;;
65613;SDS011;52283;49.292;10.572;2023-05-03T10:14:36;8.48;;;5.18;;
65613;SDS011;52283;49.292;10.572;2023-05-03T10:17:07;8.60;;;5.38;;
65613;SDS011;52283;49.292;10.572;2023-05-03T10:19:38;7.85;;;5.72;;
65613;SDS011;52283;49.292;10.572;2023-05-03T10:22:11;7.70;;;5.35;;
65613;SDS011;52283;49.292;10.572;2023-05-03T10:27:41;8.52;;;5.60;;
65613;SDS011;52283;49.292;10.572;2023-05-03T10:30:29;10.07;;;5.03;;
65613;SDS011;52283;49.292;10.572;2023-05-03T10:32:56;10.77;;;5.68;;
65613;SDS011;52283;49.292;10.572;2023-05-03T10:35:27;8.55;;;5.93;;
65613;SDS011;52283;49.292;10.572;2023-05-03T10:37:54;8.45;;;5.30;;
65613;SDS011;52283;49.292;10.572;2023-05-03T10:40:24;9.40;;;6.18;;
65613;SDS011;52283;49.292;10.572;2023-05-03T10:43:07;11.55;;;6.60;;
65613;SDS011;52283;49.292;10.572;2023-05-03T10:46:32;8.30;;;5.30;;
65613;SDS011;52283;49.292;10.572;2023-05-03T10:49:18;9.48;;;5.82;;
65613;SDS011;52283;49.292;10.572;2023-05-03T10:51:46;6.30;;;5.20;;
65613;SDS011;52283;49.292;10.572;2023-05-03T10:54:13;9.43;;;4.88;;
65613;SDS011;52283;49.292;10.572;2023-05-03T10:56:52;10.77;;;5.43;;
65613;SDS011;52283;49.292;10.572;2023-05-03T10:59:20;10.07;;;5.75;;
65613;SDS011;52283;49.292;10.572;2023-05-03T11:01:48;8.57;;;5.88;;
65613;SDS011;52283;49.292;10.572;2023-05-03T11:04:17;12.75;;;6.05;;
65613;SDS011;52283;49.292;10.572;2023-05-03T11:06:57;8.85;;;6.05;;
65613;SDS011;52283;49.292;10.572;2023-05-03T11:09:29;11.30;;;6.80;;
65613;SDS011;52283;49.292;10.572;2023-05-03T11:11:58;11.02;;;6.68;;
65613;SDS011;52283;49.292;10.572;2023-05-03T11:14:28;8.48;;;5.72;;
65613;SDS011;52283;49.292;10.572;2023-05-03T11:16:55;7.22;;;5.50;;
65613;SDS011;52283;49.292;10.572;2023-05-03T11:19:22;7.18;;;5.18;;
65613;SDS011;52283;49.292;10.572;2023-05-03T11:21:49;9.48;;;5.60;;
65613;SDS011;52283;49.292;10.572;2023-05-03T11:24:16;9.07;;;5.10;;
65613;SDS011;52283;49.292;10.572;2023-05-03T11:26:42;8.70;;;5.93;;
65613;SDS011;52283;49.292;10.572;2023-05-03T11:29:10;8.00;;;4.78;;
65613;SDS011;52283;49.292;10.572;2023-05-03T11:31:38;8.98;;;5.78;;
65613;SDS011;52283;49.292;10.572;2023-05-03T11:34:06;8.77;;;5.85;;
65613;SDS011;52283;49.292;10.572;2023-05-03T11:36:33;7.13;;;5.47;;
65613;SDS011;52283;49.292;10.572;2023-05-03T11:39:00;9.48;;;6.25;;
65613;SDS011;52283;49.292;10.572;2023-05-03T11:41:29;9.35;;;5.40;;
65613;SDS011;52283;49.292;10.572;2023-05-03T11:43:56;8.80;;;5.72;;
65613;SDS011;52283;49.292;10.572;2023-05-03T11:46:24;7.38;;;5.57;;
65613;SDS011;52283;49.292;10.572;2023-05-03T11:48:53;7.60;;;5.10;;
65613;SDS011;52283;49.292;10.572;2023-05-03T11:51:20;7.82;;;5.15;;
65613;SDS011;52283;49.292;10.572;2023-05-03T11:53:47;11.38;;;5.97;;
65613;SDS011;52283;49.292;10.572;2023-05-03T11:56:14;7.85;;;5.45;;
65613;SDS011;52283;49.292;10.572;2023-05-03T11:58:49;11.38;;;5.28;;
65613;SDS011;52283;49.292;10.572;2023-05-03T12:01:21;7.57;;;5.22;;
65613;SDS011;52283;49.292;10.572;2023-05-03T12:03:53;11.23;;;4.78;;
65613;SDS011;52283;49.292;10.572;2023-05-03T12:06:21;6.43;;;4.38;;
65613;SDS011;52283;49.292;10.572;2023-05-03T12:08:48;6.65;;;4.22;;
65613;SDS011;52283;49.292;10.572;2023-05-03T12:11:14;6.07;;;4.57;;
65613;SDS011;52283;49.292;10.572;2023-05-03T12:13:41;9.48;;;5.40;;
65613;SDS011;52283;49.292;10.572;2023-05-03T12:16:08;8.32;;;5.22;;
65613;SDS011;52283;49.292;10.572;2023-05-03T12:18:46;7.45;;;4.75;;
65613;SDS011;52283;49.292;10.572;2023-05-03T12:21:15;7.18;;;4.55;;
65613;SDS011;52283;49.292;10.572;2023-05-03T12:23:42;8.70;;;5.53;;
65613;SDS011;52283;49.292;10.572;2023-05-03T12:26:08;5.63;;;4.85;;
65613;SDS011;52283;49.292;10.572;2023-05-03T12:28:35;7.05;;;5.05;;
65613;SDS011;52283;49.292;10.572;2023-05-03T12:31:01;10.20;;;5.72;;
65613;SDS011;52283;49.292;10.572;2023-05-03T12:33:28;6.05;;;5.05;;
65613;SDS011;52283;49.292;10.572;2023-05-03T12:35:56;12.57;;;7.65;;
65613;SDS011;52283;49.292;10.572;2023-05-03T12:38:23;8.27;;;5.05;;
65613;SDS011;52283;49.292;10.572;2023-05-03T12:40:49;10.80;;;5.35;;
65613;SDS011;52283;49.292;10.572;2023-05-03T12:43:17;8.77;;;5.53;;
65613;SDS011;52283;49.292;10.572;2023-05-03T12:45:43;7.93;;;5.45;;
65613;SDS011;52283;49.292;10.572;2023-05-03T12:48:10;8.50;;;5.28;;
65613;SDS011;52283;49.292;10.572;2023-05-03T12:50:37;14.13;;;9.93;;
65613;SDS011;52283;49.292;10.572;2023-05-03T12:53:04;7.75;;;5.05;;
65613;SDS011;52283;49.292;10.572;2023-05-03T12:55:31;5.20;;;4.68;;
65613;SDS011;52283;49.292;10.572;2023-05-03T12:57:58;7.43;;;5.38;;
65613;SDS011;52283;49.292;10.572;2023-05-03T13:00:25;9.48;;;5.25;;
65613;SDS011;52283;49.292;10.572;2023-05-03T13:02:52;8.82;;;6.32;;
65613;SDS011;52283;49.292;10.572;2023-05-03T13:05:18;7.32;;;5.07;;
65613;SDS011;52283;49.292;10.572;2023-05-03T13:07:45;8.85;;;5.82;;
65613;SDS011;52283;49.292;10.572;2023-05-03T13:10:13;6.20;;;4.20;;
65613;SDS011;52283;49.292;10.572;2023-05-03T13:12:40;7.47;;;5.07;;
65613;SDS011;52283;49.292;10.572;2023-05-03T13:15:07;6.15;;;4.55;;
65613;SDS011;52283;49.292;10.572;2023-05-03T13:17:35;7.25;;;5.28;;
65613;SDS011;52283;49.292;10.572;2023-05-03T13:20:01;11.63;;;5.50;;
65613;SDS011;52283;49.292;10.572;2023-05-03T13:22:32;8.93;;;5.18;;
65613;SDS011;52283;49.292;10.572;2023-05-03T13:24:58;11.18;;;5.13;;
65613;SDS011;52283;49.292;10.572;2023-05-03T13:27:26;6.55;;;4.85;;
65613;SDS011;52283;49.292;10.572;2023-05-03T13:29:52;8.32;;;4.93;;
65613;SDS011;52283;49.292;10.572;2023-05-03T13:32:19;4.78;;;3.38;;
65613;SDS011;52283;49.292;10.572;2023-05-03T13:34:45;9.52;;;3.90;;
65613;SDS011;52283;49.292;10.572;2023-05-03T13:37:12;10.05;;;4.32;;
65613;SDS011;52283;49.292;10.572;2023-05-03T13:39:42;5.10;;;4.25;;
65613;SDS011;52283;49.292;10.572;2023-05-03T13:42:08;7.85;;;4.35;;
65613;SDS011;52283;49.292;10.572;2023-05-03T13:44:36;6.88;;;4.07;;
65613;SDS011;52283;49.292;10.572;2023-05-03T13:47:03;7.70;;;4.88;;
65613;SDS011;52283;49.292;10.572;2023-05-03T13:49:30;6.95;;;3.40;;
65613;SDS011;52283;49.292;10.572;2023-05-03T13:51:56;7.03;;;3.45;;
65613;SDS011;52283;49.292;10.572;2023-05-03T13:54:23;6.15;;;3.38;;
65613;SDS011;52283;49.292;10.572;2023-05-03T13:56:49;6.03;;;3.72;;
65613;SDS011;52283;49.292;10.572;2023-05-03T13:59:16;5.35;;;3.65;;
65613;SDS011;52283;49.292;10.572;2023-05-03T14:01:43;5.43;;;3.83;;
65613;SDS011;52283;49.292;10.572;2023-05-03T14:04:11;8.68;;;3.15;;
65613;SDS011;52283;49.292;10.572;2023-05-03T14:06:38;5.93;;;3.88;;
65613;SDS011;52283;49.292;10.572;2023-05-03T14:09:04;6.85;;;3.67;;
65613;SDS011;52283;49.292;10.572;2023-05-03T14:11:31;4.07;;;3.65;;
65613;SDS011;52283;49.292;10.572;2023-05-03T14:13:58;7.32;;;3.70;;
65613;SDS011;52283;49.292;10.572;2023-05-03T14:16:25;6.70;;;4.00;;
65613;SDS011;52283;49.292;10.572;2023-05-03T14:18:53;6.47;;;3.85;;
65613;SDS011;52283;49.292;10.572;2023-05-03T14:21:20;5.40;;;3.80;;
65613;SDS011;52283;49.292;10.572;2023-05-03T14:23:47;3.88;;;3.17;;
65613;SDS011;52283;49.292;10.572;2023-05-03T14:26:14;4.15;;;3.10;;
65613;SDS011;52283;49.292;10.572;2023-05-03T14:28:41;4.60;;;3.22;;
65613;SDS011;52283;49.292;10.572;2023-05-03T14:31:08;5.63;;;3.22;;